createdAt,value
2018-10-12T00:01:17.858Z,13.67
2018-10-12T00:03:46.596Z,13.00
2018-10-12T00:06:15.282Z,13.67
2018-10-12T00:08:43.941Z,13.43
2018-10-12T00:11:12.599Z,13.43
2018-10-12T00:13:41.317Z,13.50
2018-10-12T00:16:10.008Z,12.87
2018-10-12T00:18:38.683Z,13.60
2018-10-12T00:21:07.395Z,12.63
2018-10-12T00:23:36.164Z,13.33
2018-10-12T00:26:04.895Z,13.40
2018-10-12T00:28:33.684Z,12.73
2018-10-12T00:31:02.352Z,12.20
2018-10-12T00:33:31.140Z,12.40
2018-10-12T00:35:59.858Z,12.83
2018-10-12T00:38:28.621Z,11.73
2018-10-12T00:40:57.336Z,11.80
2018-10-12T00:43:26.031Z,12.63
2018-10-12T00:45:54.672Z,11.97
2018-10-12T00:48:23.566Z,12.53
2018-10-12T00:50:52.235Z,11.70
2018-10-12T00:53:20.903Z,11.67
2018-10-12T00:55:49.673Z,11.20
2018-10-12T00:58:18.478Z,11.53
2018-10-12T01:00:47.229Z,10.80
2018-10-12T01:03:19.118Z,10.50
2018-10-12T01:05:47.792Z,11.37
2018-10-12T01:08:16.542Z,10.60
2018-10-12T01:10:45.230Z,10.87
2018-10-12T01:13:13.846Z,10.87
2018-10-12T01:15:42.600Z,10.83
2018-10-12T01:18:11.242Z,10.33
2018-10-12T01:20:39.940Z,10.33
2018-10-12T01:23:08.663Z,10.07
2018-10-12T01:25:37.436Z,9.93
2018-10-12T01:28:06.170Z,9.37
2018-10-12T01:30:34.976Z,9.70
2018-10-12T01:33:05.272Z,10.50
2018-10-12T01:35:34.419Z,9.50
2018-10-12T01:38:03.097Z,9.90
2018-10-12T01:40:32.440Z,9.80
2018-10-12T01:43:01.443Z,9.53
2018-10-12T01:45:30.100Z,9.73
2018-10-12T01:47:58.711Z,9.73
2018-10-12T01:50:27.491Z,9.87
2018-10-12T01:52:56.115Z,9.60
2018-10-12T01:55:24.793Z,9.57
2018-10-12T01:57:53.502Z,9.00
2018-10-12T02:00:22.128Z,9.60
2018-10-12T02:02:50.786Z,9.23
2018-10-12T02:05:19.405Z,8.80
2018-10-12T02:07:48.110Z,9.10
2018-10-12T02:10:16.840Z,8.67
2018-10-12T02:12:45.497Z,9.20
2018-10-12T02:15:14.143Z,8.33
2018-10-12T02:17:42.744Z,7.80
2018-10-12T02:20:11.852Z,8.13
2018-10-12T02:22:40.496Z,7.87
2018-10-12T02:25:09.443Z,6.80
2018-10-12T02:27:38.072Z,7.00
2018-10-12T02:30:07.504Z,6.40
2018-10-12T02:32:36.165Z,5.87
2018-10-12T02:35:05.157Z,5.53
2018-10-12T02:37:33.844Z,5.63
2018-10-12T02:40:02.612Z,5.47
2018-10-12T02:42:31.241Z,4.83
2018-10-12T02:44:59.892Z,4.97
2018-10-12T02:47:28.506Z,4.17
2018-10-12T02:49:57.171Z,4.27
2018-10-12T02:52:25.778Z,3.70
2018-10-12T02:54:54.449Z,3.63
2018-10-12T02:57:23.071Z,3.57
2018-10-12T02:59:51.657Z,3.33
2018-10-12T03:02:20.280Z,3.40
2018-10-12T03:04:49.017Z,2.90
2018-10-12T03:07:17.645Z,3.73
2018-10-12T03:09:46.350Z,3.00
2018-10-12T03:12:15.115Z,2.90
2018-10-12T03:14:43.788Z,3.20
2018-10-12T03:17:12.484Z,3.20
2018-10-12T03:19:41.234Z,3.00
2018-10-12T03:22:09.913Z,3.20
2018-10-12T03:24:38.633Z,3.30
2018-10-12T03:27:07.496Z,3.00
2018-10-12T03:29:36.257Z,3.33
2018-10-12T03:32:05.962Z,3.40
2018-10-12T03:34:34.776Z,3.60
2018-10-12T03:37:03.529Z,3.30
2018-10-12T03:39:32.276Z,3.60
2018-10-12T03:42:00.983Z,3.47
2018-10-12T03:44:29.738Z,3.47
2018-10-12T03:46:58.416Z,3.40
2018-10-12T03:49:27.169Z,3.73
2018-10-12T03:51:55.933Z,3.93
2018-10-12T03:54:24.570Z,3.83
2018-10-12T03:56:53.276Z,3.90
2018-10-12T03:59:22.027Z,4.10
2018-10-12T04:01:50.757Z,4.00
2018-10-12T04:04:19.395Z,3.97
2018-10-12T04:06:48.017Z,4.00
2018-10-12T04:09:16.693Z,4.17
2018-10-12T04:11:45.406Z,4.20
2018-10-12T04:14:15.146Z,4.17
2018-10-12T04:16:43.799Z,4.67
2018-10-12T04:19:12.394Z,4.53
2018-10-12T04:21:41.004Z,4.10
2018-10-12T04:24:09.597Z,4.67
2018-10-12T04:26:38.273Z,4.50
2018-10-12T04:29:06.928Z,4.17
2018-10-12T04:31:35.653Z,4.20
2018-10-12T04:34:04.305Z,4.73
2018-10-12T04:36:33.037Z,4.70
2018-10-12T04:39:12.940Z,4.60
2018-10-12T04:41:41.654Z,4.60
2018-10-12T04:44:10.391Z,4.37
2018-10-12T04:46:40.749Z,4.80
2018-10-12T04:49:11.700Z,4.53
2018-10-12T04:51:49.085Z,4.23
2018-10-12T04:54:18.076Z,5.93
2018-10-12T04:56:47.283Z,5.33
2018-10-12T04:59:16.022Z,4.57
2018-10-12T05:01:44.764Z,4.97
2018-10-12T05:04:13.626Z,4.60
2018-10-12T05:06:42.276Z,4.90
2018-10-12T05:09:11.926Z,4.83
2018-10-12T05:11:40.789Z,4.90
2018-10-12T05:14:10.120Z,4.80
2018-10-12T05:16:38.947Z,4.93
2018-10-12T05:19:08.145Z,5.00
2018-10-12T05:21:37.014Z,4.70
2018-10-12T05:24:06.310Z,5.03
2018-10-12T05:26:35.011Z,4.80
2018-10-12T05:29:03.853Z,4.40
2018-10-12T05:31:32.527Z,4.53
2018-10-12T05:34:01.230Z,5.60
2018-10-12T05:36:29.892Z,5.00
2018-10-12T05:38:58.692Z,4.83
2018-10-12T05:41:27.458Z,4.70
2018-10-12T05:43:56.100Z,4.90
2018-10-12T05:46:24.757Z,5.07
2018-10-12T05:49:04.557Z,4.87
2018-10-12T05:51:33.213Z,4.87
2018-10-12T05:54:01.915Z,5.40
2018-10-12T05:56:33.100Z,5.00
2018-10-12T05:59:02.045Z,4.70
2018-10-12T06:01:30.851Z,5.03
2018-10-12T06:03:59.622Z,4.90
2018-10-12T06:06:28.664Z,4.70
2018-10-12T06:08:57.935Z,4.30
2018-10-12T06:11:26.653Z,4.90
2018-10-12T06:13:55.227Z,4.80
2018-10-12T06:16:23.961Z,4.70
2018-10-12T06:18:52.663Z,4.77
2018-10-12T06:21:21.204Z,4.90
2018-10-12T06:23:49.859Z,4.97
2018-10-12T06:26:18.560Z,4.80
2018-10-12T06:28:47.186Z,4.73
2018-10-12T06:31:15.811Z,5.20
2018-10-12T06:33:44.538Z,4.87
2018-10-12T06:36:13.192Z,4.70
2018-10-12T06:38:41.812Z,5.30
2018-10-12T06:41:11.921Z,4.70
2018-10-12T06:43:40.635Z,4.60
2018-10-12T06:46:09.228Z,4.93
2018-10-12T06:48:37.903Z,4.80
2018-10-12T06:51:06.589Z,4.50
2018-10-12T06:53:35.385Z,4.93
2018-10-12T06:56:03.993Z,4.80
2018-10-12T06:58:32.681Z,4.40
2018-10-12T07:01:01.339Z,4.40
2018-10-12T07:03:30.300Z,4.23
2018-10-12T07:05:59.174Z,4.37
2018-10-12T07:08:27.805Z,4.70
2018-10-12T07:10:56.576Z,4.53
2018-10-12T07:13:25.316Z,4.27
2018-10-12T07:15:53.984Z,4.63
2018-10-12T07:18:22.641Z,4.77
2018-10-12T07:20:52.315Z,4.43
2018-10-12T07:23:21.132Z,4.60
2018-10-12T07:25:49.931Z,4.80
2018-10-12T07:28:18.565Z,4.77
2018-10-12T07:30:47.255Z,4.20
2018-10-12T07:33:15.985Z,4.27
2018-10-12T07:35:44.659Z,5.17
2018-10-12T07:38:13.479Z,4.50
2018-10-12T07:40:42.204Z,4.90
2018-10-12T07:43:11.391Z,5.00
2018-10-12T07:45:40.162Z,5.03
2018-10-12T07:48:09.092Z,4.90
2018-10-12T07:50:38.781Z,5.27
2018-10-12T07:53:07.808Z,5.10
2018-10-12T07:55:36.833Z,5.30
2018-10-12T07:58:05.709Z,5.50
2018-10-12T08:00:34.578Z,5.20
2018-10-12T08:03:03.338Z,5.70
2018-10-12T08:05:32.138Z,5.47
2018-10-12T08:08:01.676Z,5.30
2018-10-12T08:10:30.532Z,5.73
2018-10-12T08:12:59.486Z,5.47
2018-10-12T08:15:28.420Z,5.10
2018-10-12T08:17:57.276Z,4.90
2018-10-12T08:20:26.238Z,4.50
2018-10-12T08:22:55.029Z,4.33
2018-10-12T08:25:23.837Z,4.10
2018-10-12T08:27:52.580Z,3.87
2018-10-12T08:30:21.404Z,3.40
2018-10-12T08:32:50.130Z,3.43
2018-10-12T08:35:18.868Z,3.10
2018-10-12T08:37:48.228Z,2.80
2018-10-12T08:40:16.953Z,3.20
2018-10-12T08:42:45.671Z,2.90
2018-10-12T08:45:14.473Z,3.00
2018-10-12T08:47:43.404Z,3.30
2018-10-12T08:50:12.273Z,3.20
2018-10-12T08:52:41.070Z,3.30
2018-10-12T08:55:09.444Z,3.30
2018-10-12T08:57:38.131Z,3.50
2018-10-12T09:00:06.845Z,3.90
2018-10-12T09:02:35.466Z,3.97
2018-10-12T09:05:04.199Z,3.60
2018-10-12T09:07:32.851Z,3.43
2018-10-12T09:10:01.589Z,3.43
2018-10-12T09:12:30.325Z,3.70
2018-10-12T09:14:59.085Z,3.20
2018-10-12T09:17:28.015Z,3.63
2018-10-12T09:19:56.741Z,3.20
2018-10-12T09:22:26.771Z,3.67
2018-10-12T09:24:55.624Z,3.00
2018-10-12T09:27:24.444Z,3.23
2018-10-12T09:29:53.111Z,3.40
2018-10-12T09:32:22.884Z,3.80
2018-10-12T09:34:51.659Z,3.17
2018-10-12T09:37:20.366Z,2.90
2018-10-12T09:39:49.124Z,2.90
2018-10-12T09:42:18.562Z,3.17
2018-10-12T09:44:47.665Z,3.80
2018-10-12T09:47:16.512Z,3.00
2018-10-12T09:49:45.778Z,3.80
2018-10-12T09:52:14.583Z,3.33
2018-10-12T09:54:43.495Z,2.97
2018-10-12T09:57:17.691Z,2.73
2018-10-12T09:59:46.655Z,3.70
2018-10-12T10:02:20.727Z,3.87
2018-10-12T10:04:50.560Z,3.60
2018-10-12T10:07:19.421Z,3.10
2018-10-12T10:09:48.315Z,3.20
2018-10-12T10:12:17.711Z,3.40
2018-10-12T10:14:46.519Z,3.37
2018-10-12T10:17:15.414Z,3.83
2018-10-12T10:19:44.279Z,3.10
2018-10-12T10:22:13.146Z,3.27
2018-10-12T10:24:41.983Z,3.53
2018-10-12T10:27:10.912Z,3.43
2018-10-12T10:29:39.703Z,3.80
2018-10-12T10:32:08.901Z,3.50
2018-10-12T10:34:37.522Z,3.60
2018-10-12T10:37:06.551Z,3.57
2018-10-12T10:39:35.469Z,3.50
2018-10-12T10:42:04.377Z,3.47
2018-10-12T10:44:33.059Z,3.50
2018-10-12T10:47:02.763Z,3.60
2018-10-12T10:49:31.569Z,3.20
2018-10-12T10:52:00.211Z,3.50
2018-10-12T10:54:30.264Z,3.40
2018-10-12T10:57:05.956Z,3.13
2018-10-12T10:59:36.648Z,3.27
2018-10-12T11:02:05.400Z,3.50
2018-10-12T11:04:36.548Z,3.80
2018-10-12T11:07:06.338Z,3.13
2018-10-12T11:09:35.069Z,3.57
2018-10-12T11:12:03.735Z,3.50
2018-10-12T11:14:32.838Z,3.27
2018-10-12T11:17:01.465Z,3.37
2018-10-12T11:19:30.173Z,3.70
2018-10-12T11:21:58.877Z,3.40
2018-10-12T11:24:27.645Z,3.53
2018-10-12T11:26:56.420Z,3.43
2018-10-12T11:29:25.125Z,3.50
2018-10-12T11:31:53.873Z,3.30
2018-10-12T11:34:23.201Z,2.80
2018-10-12T11:36:52.024Z,2.73
2018-10-12T11:39:20.685Z,3.07
2018-10-12T11:41:49.307Z,3.10
2018-10-12T11:44:18.064Z,3.20
2018-10-12T11:46:46.730Z,2.97
2018-10-12T11:49:15.407Z,2.93
2018-10-12T11:51:44.027Z,3.07
2018-10-12T11:54:12.791Z,3.10
2018-10-12T11:56:41.589Z,2.80
2018-10-12T11:59:10.356Z,2.70
2018-10-12T12:01:39.204Z,2.70
2018-10-12T12:04:07.947Z,2.77
2018-10-12T12:06:36.537Z,2.50
2018-10-12T12:09:05.611Z,2.60
2018-10-12T12:11:34.367Z,2.40
2018-10-12T12:14:03.134Z,2.87
2018-10-12T12:16:31.952Z,2.50
2018-10-12T12:19:00.556Z,2.40
2018-10-12T12:21:29.254Z,2.30
2018-10-12T12:23:57.926Z,2.53
2018-10-12T12:26:26.729Z,2.70
2018-10-12T12:28:57.123Z,2.63
2018-10-12T12:31:25.780Z,2.70
2018-10-12T12:33:54.682Z,2.40
2018-10-12T12:36:23.625Z,2.90
2018-10-12T12:38:52.878Z,2.57
2018-10-12T12:41:21.580Z,2.87
2018-10-12T12:43:50.340Z,2.60
2018-10-12T12:46:19.075Z,2.63
2018-10-12T12:48:48.164Z,2.73
2018-10-12T12:51:16.407Z,2.67
2018-10-12T12:53:45.195Z,2.77
2018-10-12T12:56:14.826Z,2.60
2018-10-12T12:58:43.498Z,2.70
2018-10-12T13:01:12.550Z,2.73
2018-10-12T13:03:40.987Z,2.93
2018-10-12T13:06:09.676Z,2.40
2018-10-12T13:08:38.920Z,2.47
2018-10-12T13:11:07.591Z,2.37
2018-10-12T13:13:36.391Z,2.80
2018-10-12T13:16:04.984Z,2.80
2018-10-12T13:18:34.311Z,2.33
2018-10-12T13:21:03.038Z,2.20
2018-10-12T13:23:31.730Z,2.10
2018-10-12T13:26:01.366Z,2.63
2018-10-12T13:28:29.894Z,2.30
2018-10-12T13:30:58.565Z,2.90
2018-10-12T13:33:27.165Z,2.50
2018-10-12T13:35:55.837Z,2.60
2018-10-12T13:38:24.521Z,2.60
2018-10-12T13:40:53.273Z,2.33
2018-10-12T13:43:21.926Z,2.60
2018-10-12T13:45:50.506Z,2.37
2018-10-12T13:48:19.178Z,2.70
2018-10-12T13:50:47.924Z,2.10
2018-10-12T13:53:16.610Z,2.90
2018-10-12T13:55:45.280Z,2.70
2018-10-12T13:58:14.348Z,2.30
2018-10-12T14:00:43.102Z,2.27
2018-10-12T14:03:11.774Z,2.50
2018-10-12T14:05:40.516Z,2.60
2018-10-12T14:08:09.338Z,2.37
2018-10-12T14:10:38.021Z,2.53
2018-10-12T14:13:06.657Z,2.53
2018-10-12T14:15:35.290Z,2.40
2018-10-12T14:18:03.930Z,2.40
2018-10-12T14:20:32.624Z,2.63
2018-10-12T14:23:01.373Z,3.27
2018-10-12T14:25:29.979Z,3.10
2018-10-12T14:27:58.661Z,2.27
2018-10-12T14:30:27.510Z,2.43
2018-10-12T14:32:56.168Z,2.30
2018-10-12T14:35:24.937Z,2.33
2018-10-12T14:37:54.571Z,2.20
2018-10-12T14:40:23.236Z,2.27
2018-10-12T14:42:52.038Z,2.30
2018-10-12T14:45:20.682Z,2.20
2018-10-12T14:47:49.661Z,2.03
2018-10-12T14:50:18.464Z,2.20
2018-10-12T14:52:47.256Z,2.30
2018-10-12T14:55:16.663Z,2.27
2018-10-12T14:57:45.277Z,2.30
2018-10-12T15:00:14.044Z,2.37
2018-10-12T15:02:42.713Z,2.20
2018-10-12T15:05:11.378Z,2.60
2018-10-12T15:07:40.146Z,3.20
2018-10-12T15:10:08.807Z,3.47
2018-10-12T15:12:37.504Z,4.30
2018-10-12T15:15:15.048Z,5.13
2018-10-12T15:17:43.847Z,8.03
2018-10-12T15:20:12.629Z,3.37
2018-10-12T15:22:41.473Z,3.43
2018-10-12T15:25:10.398Z,3.37
2018-10-12T15:27:39.641Z,3.10
2018-10-12T15:30:08.710Z,2.80
2018-10-12T15:32:37.458Z,2.93
2018-10-12T15:35:06.261Z,2.80
2018-10-12T15:37:35.124Z,2.90
2018-10-12T15:40:03.956Z,5.40
2018-10-12T15:42:33.608Z,2.70
2018-10-12T15:45:02.289Z,2.70
2018-10-12T15:47:31.017Z,3.40
2018-10-12T15:49:59.812Z,2.80
2018-10-12T15:52:28.696Z,2.60
2018-10-12T15:54:57.443Z,2.60
2018-10-12T15:57:27.040Z,2.97
2018-10-12T15:59:55.847Z,2.70
2018-10-12T16:02:24.621Z,3.10
2018-10-12T16:04:53.483Z,2.80
2018-10-12T16:07:22.170Z,2.83
2018-10-12T16:09:52.898Z,3.10
2018-10-12T16:12:22.245Z,3.80
2018-10-12T16:14:51.002Z,2.87
2018-10-12T16:17:19.676Z,3.20
2018-10-12T16:19:48.519Z,2.83
2018-10-12T16:22:17.172Z,3.07
2018-10-12T16:24:57.520Z,2.93
2018-10-12T16:27:26.478Z,3.20
2018-10-12T16:29:56.531Z,2.90
2018-10-12T16:32:25.326Z,3.83
2018-10-12T16:34:54.111Z,3.20
2018-10-12T16:37:22.931Z,3.10
2018-10-12T16:39:51.631Z,3.40
2018-10-12T16:42:20.369Z,3.30
2018-10-12T16:44:49.344Z,3.63
2018-10-12T16:47:18.169Z,3.40
2018-10-12T16:49:47.026Z,3.27
2018-10-12T16:52:15.726Z,3.80
2018-10-12T16:54:44.446Z,6.93
2018-10-12T16:57:13.177Z,7.33
2018-10-12T16:59:41.877Z,7.63
2018-10-12T17:02:10.596Z,7.83
2018-10-12T17:04:39.495Z,12.23
2018-10-12T17:07:08.213Z,12.53
2018-10-12T17:09:36.925Z,14.33
2018-10-12T17:12:05.551Z,11.87
2018-10-12T17:14:34.277Z,11.37
2018-10-12T17:17:02.950Z,9.37
2018-10-12T17:19:31.564Z,7.30
2018-10-12T17:22:00.214Z,6.07
2018-10-12T17:24:28.992Z,9.13
2018-10-12T17:26:57.725Z,14.33
2018-10-12T17:29:26.375Z,16.00
2018-10-12T17:31:55.104Z,12.47
2018-10-12T17:34:23.829Z,11.53
2018-10-12T17:36:52.498Z,7.47
2018-10-12T17:39:21.158Z,6.53
2018-10-12T17:41:49.914Z,4.67
2018-10-12T17:44:18.658Z,5.03
2018-10-12T17:46:47.481Z,4.97
2018-10-12T17:49:16.292Z,5.00
2018-10-12T17:51:44.954Z,5.40
2018-10-12T17:54:13.643Z,5.00
2018-10-12T17:56:42.332Z,5.57
2018-10-12T17:59:11.009Z,4.63
2018-10-12T18:01:39.793Z,5.47
2018-10-12T18:04:08.445Z,7.93
2018-10-12T18:06:37.050Z,7.40
2018-10-12T18:09:08.191Z,8.03
2018-10-12T18:11:36.929Z,7.23
2018-10-12T18:14:05.729Z,6.97
2018-10-12T18:16:34.403Z,6.83
2018-10-12T18:19:03.179Z,6.33
2018-10-12T18:21:31.852Z,5.57
2018-10-12T18:24:00.578Z,5.87
2018-10-12T18:26:30.361Z,5.50
2018-10-12T18:28:59.123Z,5.90
2018-10-12T18:31:27.845Z,6.87
2018-10-12T18:33:56.656Z,6.90
2018-10-12T18:36:25.478Z,6.13
2018-10-12T18:38:54.185Z,7.13
2018-10-12T18:41:22.947Z,9.50
2018-10-12T18:43:51.708Z,8.13
2018-10-12T18:46:20.444Z,7.00
2018-10-12T18:48:49.496Z,6.80
2018-10-12T18:51:18.349Z,5.90
2018-10-12T18:53:46.977Z,5.53
2018-10-12T18:56:15.778Z,5.83
2018-10-12T18:58:44.479Z,4.17
2018-10-12T19:01:13.246Z,5.40
2018-10-12T19:03:42.051Z,5.47
2018-10-12T19:06:10.941Z,4.97
2018-10-12T19:08:39.589Z,4.97
2018-10-12T19:11:08.286Z,5.10
2018-10-12T19:13:37.099Z,4.70
2018-10-12T19:16:05.619Z,4.50
2018-10-12T19:18:34.286Z,4.40
2018-10-12T19:21:03.000Z,4.80
2018-10-12T19:23:35.024Z,4.80
2018-10-12T19:26:05.000Z,4.40
2018-10-12T19:28:34.446Z,4.73
2018-10-12T19:31:04.454Z,4.90
2018-10-12T19:33:33.284Z,5.00
2018-10-12T19:36:02.025Z,4.77
2018-10-12T19:38:31.074Z,4.63
2018-10-12T19:40:59.693Z,4.90
2018-10-12T19:43:28.309Z,4.30
2018-10-12T19:45:57.017Z,4.67
2018-10-12T19:48:25.651Z,5.30
2018-10-12T19:50:54.389Z,4.97
2018-10-12T19:53:24.305Z,4.97
2018-10-12T19:55:53.081Z,5.27
2018-10-12T19:58:21.782Z,5.27
2018-10-12T20:00:50.569Z,4.67
2018-10-12T20:03:19.284Z,5.40
2018-10-12T20:05:48.130Z,5.87
2018-10-12T20:08:16.863Z,6.33
2018-10-12T20:10:45.608Z,5.57
2018-10-12T20:13:14.397Z,4.60
2018-10-12T20:15:43.061Z,4.50
2018-10-12T20:18:11.754Z,4.60
2018-10-12T20:20:40.476Z,5.20
2018-10-12T20:23:09.176Z,5.13
2018-10-12T20:25:37.920Z,4.50
2018-10-12T20:28:06.737Z,4.60
2018-10-12T20:30:35.437Z,4.20
2018-10-12T20:33:04.228Z,4.50
2018-10-12T20:35:32.919Z,4.40
2018-10-12T20:38:01.595Z,4.50
2018-10-12T20:40:30.376Z,4.37
2018-10-12T20:42:59.102Z,4.90
2018-10-12T20:45:28.044Z,4.20
2018-10-12T20:47:56.718Z,4.40
2018-10-12T20:50:25.419Z,4.53
2018-10-12T20:52:54.204Z,4.87
2018-10-12T20:55:22.861Z,5.30
2018-10-12T20:57:51.563Z,5.33
2018-10-12T21:00:20.693Z,5.90
2018-10-12T21:02:49.401Z,5.20
2018-10-12T21:05:18.116Z,4.80
2018-10-12T21:07:46.876Z,5.50
2018-10-12T21:10:15.844Z,5.13
2018-10-12T21:12:44.529Z,5.60
2018-10-12T21:15:13.209Z,5.90
2018-10-12T21:17:42.040Z,6.17
2018-10-12T21:20:10.749Z,6.20
2018-10-12T21:22:39.493Z,6.10
2018-10-12T21:25:08.190Z,6.20
2018-10-12T21:27:36.878Z,6.43
2018-10-12T21:30:05.742Z,7.10
2018-10-12T21:32:34.461Z,6.53
2018-10-12T21:35:03.174Z,6.23
2018-10-12T21:37:31.979Z,6.57
2018-10-12T21:40:00.688Z,6.10
2018-10-12T21:42:29.301Z,6.30
2018-10-12T21:44:58.055Z,5.60
2018-10-12T21:47:26.749Z,5.83
2018-10-12T21:49:55.464Z,5.40
2018-10-12T21:52:24.268Z,5.40
2018-10-12T21:54:53.072Z,5.40
2018-10-12T21:57:22.067Z,5.50
2018-10-12T21:59:50.889Z,5.60
2018-10-12T22:02:19.575Z,5.57
2018-10-12T22:04:48.459Z,5.77
2018-10-12T22:07:17.265Z,6.03
2018-10-12T22:09:45.944Z,5.60
2018-10-12T22:12:14.622Z,5.70
2018-10-12T22:14:43.246Z,5.87
2018-10-12T22:17:12.293Z,6.07
2018-10-12T22:19:41.080Z,5.93
2018-10-12T22:22:09.836Z,6.07
2018-10-12T22:24:38.582Z,5.67
2018-10-12T22:27:07.551Z,5.50
2018-10-12T22:29:36.249Z,6.10
2018-10-12T22:32:05.116Z,6.10
2018-10-12T22:34:34.020Z,5.40
2018-10-12T22:37:02.881Z,5.83
2018-10-12T22:39:31.590Z,5.60
2018-10-12T22:42:00.293Z,5.80
2018-10-12T22:44:29.032Z,5.27
2018-10-12T22:46:57.727Z,5.53
2018-10-12T22:49:26.474Z,6.23
2018-10-12T22:51:55.190Z,5.20
2018-10-12T22:54:24.237Z,5.83
2018-10-12T22:56:52.980Z,5.30
2018-10-12T22:59:21.682Z,5.47
2018-10-12T23:01:50.412Z,5.60
2018-10-12T23:04:19.186Z,5.37
2018-10-12T23:06:47.870Z,5.40
2018-10-12T23:09:16.550Z,5.80
2018-10-12T23:11:45.189Z,5.53
2018-10-12T23:14:13.774Z,5.90
2018-10-12T23:16:42.474Z,5.90
2018-10-12T23:19:11.137Z,5.73
2018-10-12T23:21:39.789Z,5.80
2018-10-12T23:24:08.485Z,6.03
2018-10-12T23:26:37.278Z,5.23
2018-10-12T23:29:06.228Z,5.67
2018-10-12T23:31:34.897Z,5.30
2018-10-12T23:34:06.901Z,5.47
2018-10-12T23:36:35.625Z,5.60
2018-10-12T23:39:05.673Z,5.60
2018-10-12T23:41:34.430Z,5.87
2018-10-12T23:44:03.120Z,5.30
2018-10-12T23:46:31.818Z,5.70
2018-10-12T23:49:00.432Z,5.70
2018-10-12T23:51:29.423Z,5.13
2018-10-12T23:53:58.208Z,5.43
2018-10-12T23:56:26.896Z,5.60
2018-10-12T23:58:55.584Z,5.20
